Admire, Kansas
Current Conditions -  °F | °C
As of 8:53 PM on Friday 24 Oct 2014 (Local Time) from KEMP Reporting Station
Clear Clear  
Wind Chill: 18°   Ceiling: Unl
Heat Index: 18°   Visibility: 10mi
Dew Point: 16°   Wind: 8mph
Humidity: 87%   Direction: 190°S
Pressure: 29.99"   Gusts: NA
Location:  38.64°N, 96.1°W
Report Text: KEMP 250153Z AUTO 19007KT 10SM CLR 18/16 A2999 RMK AO2 SLP152 T01830161
Loading
Personal Weather Stations






























Interactive Weather Map
Tropical Storm Tracking
New forecast layout! Learn more

10-Day Weather Forecast

Advertisements
Track Severe Weather on mobile